Time;durP1;ratioP1;P1;durP2;ratioP2;P2;SDS_P1;SDS_P2;PMS_P1;PMS_P2;Temp;Humidity;BMP_temperature;BMP_pressure;BME280_temperature;BME280_humidity;BME280_pressure;Samples;Min_cycle;Max_cycle;Signal;HPM_P1;HPM_P2
2022/03/21 00:01:40;;;;;;;36.95;25.75;;;7.30;99.90;;;;;;5016674;28;20485;-73
2022/03/21 00:04:06;;;;;;;38.47;26.73;;;7.20;99.90;;;;;;5051179;28;20046;-73
2022/03/21 00:06:31;;;;;;;38.63;27.10;;;7.10;99.90;;;;;;5049868;28;20092;-73
2022/03/21 00:08:57;;;;;;;37.78;27.60;;;7.00;99.90;;;;;;5018223;28;20048;-73
2022/03/21 00:11:24;;;;;;;39.72;29.67;;;7.00;99.90;;;;;;5032882;28;20490;-73
2022/03/21 00:13:53;;;;;;;40.17;29.63;;;7.00;99.90;;;;;;5032062;28;20038;-73
2022/03/21 00:16:19;;;;;;;41.83;31.25;;;6.80;99.90;;;;;;5049077;28;20056;-73
2022/03/21 00:18:45;;;;;;;39.40;29.48;;;6.80;99.90;;;;;;5017838;28;20033;-73
2022/03/21 00:21:10;;;;;;;39.17;29.70;;;6.80;99.90;;;;;;5015936;28;20045;-73
2022/03/21 00:23:36;;;;;;;41.65;28.35;;;6.80;99.90;;;;;;5017645;28;20490;-74
2022/03/21 00:26:02;;;;;;;39.83;29.73;;;6.70;99.90;;;;;;5015909;28;20559;-73
2022/03/21 00:28:28;;;;;;;38.92;27.60;;;6.70;99.90;;;;;;5034210;28;20052;-73
2022/03/21 00:30:54;;;;;;;37.85;26.95;;;6.70;99.90;;;;;;5013344;28;20121;-73
2022/03/21 00:33:20;;;;;;;34.03;22.75;;;6.80;99.90;;;;;;5014523;28;20397;-73
2022/03/21 00:35:48;;;;;;;28.27;20.20;;;7.00;99.90;;;;;;5024713;28;20045;-73
2022/03/21 00:38:15;;;;;;;28.88;18.33;;;7.20;99.90;;;;;;5016833;28;20037;-73
2022/03/21 00:40:44;;;;;;;28.02;15.98;;;7.30;99.90;;;;;;5014685;28;20034;-73
2022/03/21 00:43:10;;;;;;;27.30;15.85;;;7.50;99.90;;;;;;5048589;28;20064;-73
2022/03/21 00:45:35;;;;;;;25.38;15.85;;;7.60;99.90;;;;;;5016405;28;20053;-73
2022/03/21 00:48:01;;;;;;;26.20;16.27;;;7.60;99.90;;;;;;5033961;28;20136;-73
2022/03/21 00:50:27;;;;;;;26.58;16.30;;;7.70;99.90;;;;;;5048432;28;20519;-73
2022/03/21 00:52:58;;;;;;;25.92;16.55;;;7.60;99.90;;;;;;5016536;28;20056;-74
2022/03/21 00:55:31;;;;;;;24.98;16.23;;;7.50;99.90;;;;;;5049030;28;20025;-74
2022/03/21 00:57:58;;;;;;;25.45;16.98;;;7.60;99.90;;;;;;5033686;28;20045;-73
2022/03/21 01:00:26;;;;;;;30.25;16.52;;;7.60;99.90;;;;;;5016449;28;20049;-73
2022/03/21 01:02:53;;;;;;;24.92;16.05;;;7.60;99.90;;;;;;5033445;28;20512;-73
2022/03/21 01:05:19;;;;;;;26.50;16.63;;;7.60;99.90;;;;;;5032408;28;20045;-73
2022/03/21 01:07:45;;;;;;;24.73;15.13;;;7.60;99.90;;;;;;5017205;28;20485;-74
2022/03/21 01:10:14;;;;;;;26.05;16.30;;;7.50;99.90;;;;;;5029570;28;20037;-73
2022/03/21 01:12:41;;;;;;;22.77;14.65;;;7.60;99.90;;;;;;5044387;28;20033;-74
2022/03/21 01:15:08;;;;;;;22.70;13.88;;;7.50;99.90;;;;;;5025235;28;20064;-73
2022/03/21 01:17:34;;;;;;;24.48;15.82;;;7.60;99.90;;;;;;5033094;28;20138;-73
2022/03/21 01:20:00;;;;;;;21.77;14.93;;;7.60;99.90;;;;;;5048740;28;20052;-73
2022/03/21 01:22:26;;;;;;;23.33;14.70;;;7.60;99.90;;;;;;5016742;28;20040;-73
2022/03/21 01:24:51;;;;;;;23.30;14.68;;;7.60;99.90;;;;;;5031907;28;20037;-73
2022/03/21 01:27:17;;;;;;;22.98;14.38;;;7.60;99.90;;;;;;5016505;28;20038;-73
2022/03/21 01:29:43;;;;;;;22.58;13.63;;;7.70;99.90;;;;;;5015894;28;20041;-73
2022/03/21 01:32:08;;;;;;;21.50;14.10;;;7.60;99.90;;;;;;5016737;28;20034;-73
2022/03/21 01:34:34;;;;;;;23.42;14.23;;;7.50;99.90;;;;;;5015875;28;20064;-73
2022/03/21 01:36:59;;;;;;;21.83;14.23;;;7.50;99.90;;;;;;5031286;28;20294;-73
2022/03/21 01:39:25;;;;;;;20.45;13.35;;;7.40;99.90;;;;;;5031753;28;20080;-73
2022/03/21 01:41:51;;;;;;;19.15;12.60;;;7.40;99.90;;;;;;5033033;28;20043;-73
2022/03/21 01:44:18;;;;;;;24.38;13.73;;;7.40;99.90;;;;;;5014614;28;20073;-73
2022/03/21 01:46:46;;;;;;;21.75;13.43;;;7.40;99.90;;;;;;5031691;28;20072;-73
2022/03/21 01:49:13;;;;;;;21.55;13.02;;;7.40;99.90;;;;;;5048229;28;20095;-74
2022/03/21 01:51:40;;;;;;;21.77;13.50;;;7.30;99.90;;;;;;5031586;28;20053;-73
2022/03/21 01:56:51;;;;;;;20.48;12.20;;;7.20;99.90;;;;;;5032401;28;20045;-73
2022/03/21 01:59:19;;;;;;;19.80;13.45;;;7.10;99.90;;;;;;5015088;28;20041;-73
2022/03/21 02:01:45;;;;;;;20.25;12.25;;;7.20;99.90;;;;;;5048975;28;20043;-73
2022/03/21 02:04:10;;;;;;;18.50;11.88;;;7.20;99.90;;;;;;5030391;28;20034;-73
2022/03/21 02:06:37;;;;;;;19.95;12.20;;;7.20;99.90;;;;;;5046749;28;20033;-73
2022/03/21 02:09:05;;;;;;;20.05;12.68;;;7.20;99.90;;;;;;5047925;28;20045;-73
2022/03/21 02:11:32;;;;;;;18.48;11.52;;;7.20;99.90;;;;;;5048861;28;20072;-73
2022/03/21 02:13:58;;;;;;;18.15;12.27;;;7.20;99.90;;;;;;5014377;28;20045;-73
2022/03/21 02:16:29;;;;;;;18.60;11.38;;;7.20;99.90;;;;;;5028771;28;20049;-73
2022/03/21 02:18:57;;;;;;;19.00;11.73;;;7.20;99.90;;;;;;4996118;28;20056;-73
2022/03/21 02:21:35;;;;;;;18.85;12.23;;;7.10;99.90;;;;;;4995926;28;20045;-73
2022/03/21 02:24:32;;;;;;;17.55;12.27;;;7.10;99.90;;;;;;5006577;28;20501;-73
2022/03/21 02:27:00;;;;;;;19.80;11.68;;;7.10;99.90;;;;;;5006740;28;20458;-73
2022/03/21 02:29:28;;;;;;;17.83;11.35;;;7.00;99.90;;;;;;5015162;28;20046;-74
2022/03/21 02:31:57;;;;;;;19.33;12.55;;;6.90;99.90;;;;;;5012528;28;20498;-73
2022/03/21 02:34:24;;;;;;;19.20;11.77;;;7.00;99.90;;;;;;5029212;28;20045;-74
2022/03/21 02:36:55;;;;;;;18.75;11.77;;;7.00;99.90;;;;;;5015619;28;20385;-73
2022/03/21 02:39:22;;;;;;;19.05;11.30;;;6.90;99.90;;;;;;5030953;28;20482;-73
2022/03/21 02:41:48;;;;;;;20.30;11.90;;;6.90;99.90;;;;;;5031934;28;20037;-73
2022/03/21 02:44:13;;;;;;;19.02;11.88;;;6.90;99.90;;;;;;5022541;28;20529;-73
2022/03/21 02:46:39;;;;;;;19.52;11.80;;;6.90;99.90;;;;;;5031767;28;20053;-73
2022/03/21 02:49:06;;;;;;;19.38;11.50;;;6.80;99.90;;;;;;5010089;28;20508;-73
2022/03/21 02:51:38;;;;;;;18.90;11.27;;;6.80;99.90;;;;;;5030186;28;20041;-73
2022/03/21 02:54:03;;;;;;;19.48;12.05;;;6.70;99.90;;;;;;5046805;28;20033;-73
2022/03/21 02:56:29;;;;;;;19.00;12.07;;;6.80;99.90;;;;;;5031411;28;20041;-73
2022/03/21 02:58:55;;;;;;;18.20;12.25;;;6.80;99.90;;;;;;5028221;28;20087;-73
2022/03/21 03:01:20;;;;;;;22.85;12.15;;;6.70;99.90;;;;;;5016320;28;20124;-73
2022/03/21 03:03:46;;;;;;;20.65;12.63;;;6.60;99.90;;;;;;5031848;28;20042;-73
2022/03/21 03:06:12;;;;;;;20.73;12.35;;;6.70;99.90;;;;;;5030915;28;20042;-73
2022/03/21 03:08:39;;;;;;;21.27;12.80;;;6.70;99.90;;;;;;5031566;28;20041;-73
2022/03/21 03:11:05;;;;;;;21.08;12.98;;;6.70;99.90;;;;;;5047062;28;20570;-73
2022/03/21 03:13:31;;;;;;;22.60;12.88;;;6.70;99.90;;;;;;5048183;28;20128;-73
2022/03/21 03:15:57;;;;;;;21.83;14.23;;;6.60;99.90;;;;;;5030891;28;20087;-73
2022/03/21 03:18:23;;;;;;;19.17;12.88;;;6.60;99.90;;;;;;5014314;28;20458;-73
2022/03/21 03:20:51;;;;;;;22.92;13.07;;;6.40;99.90;;;;;;5047149;28;20125;-73
2022/03/21 03:23:18;;;;;;;18.88;12.30;;;6.40;99.90;;;;;;5013145;28;20049;-73
2022/03/21 03:25:45;;;;;;;21.20;12.65;;;6.40;99.90;;;;;;5046973;28;20490;-73
2022/03/21 03:28:12;;;;;;;19.30;12.52;;;6.40;99.90;;;;;;5031370;28;20056;-73
2022/03/21 03:30:38;;;;;;;19.33;12.43;;;6.40;99.90;;;;;;5047021;28;20049;-73
2022/03/21 03:33:04;;;;;;;20.98;12.70;;;6.30;99.90;;;;;;5035189;28;20374;-73
2022/03/21 03:35:30;;;;;;;22.38;12.00;;;6.20;99.90;;;;;;5051102;28;20095;-73
2022/03/21 03:37:56;;;;;;;17.85;11.20;;;6.10;99.90;;;;;;5035307;28;20045;-73
2022/03/21 03:40:22;;;;;;;19.20;11.68;;;6.00;99.90;;;;;;5016142;28;20124;-74
2022/03/21 03:42:47;;;;;;;17.90;11.98;;;6.00;99.90;;;;;;5015121;28;20054;-73
2022/03/21 03:45:13;;;;;;;18.02;11.27;;;5.90;99.90;;;;;;5007557;28;20052;-73
2022/03/21 03:47:41;;;;;;;18.75;11.25;;;5.90;99.90;;;;;;5034782;28;20049;-73
2022/03/21 03:50:07;;;;;;;19.73;12.48;;;5.80;99.90;;;;;;5049129;28;20045;-73
2022/03/21 03:52:33;;;;;;;17.58;12.15;;;5.80;99.90;;;;;;5034846;28;20037;-73
2022/03/21 03:54:58;;;;;;;20.20;13.23;;;5.70;99.90;;;;;;5017497;28;20037;-73
2022/03/21 03:57:24;;;;;;;16.90;12.02;;;5.70;99.90;;;;;;5018217;28;20044;-73
2022/03/21 03:59:50;;;;;;;18.17;11.80;;;5.60;99.90;;;;;;5050362;28;20040;-73
2022/03/21 04:02:15;;;;;;;19.15;12.07;;;5.60;99.90;;;;;;5051289;28;20045;-73
2022/03/21 04:04:41;;;;;;;19.10;12.38;;;5.50;99.90;;;;;;5033822;28;20065;-73
2022/03/21 04:07:06;;;;;;;21.05;12.57;;;5.60;99.90;;;;;;5034841;28;20393;-73
2022/03/21 04:09:32;;;;;;;18.67;12.75;;;5.60;99.90;;;;;;5033229;28;20493;-73
2022/03/21 04:11:58;;;;;;;18.38;11.80;;;5.50;99.90;;;;;;5018314;28;20109;-73
2022/03/21 04:14:23;;;;;;;19.92;12.90;;;5.40;99.90;;;;;;5017150;28;20044;-73
2022/03/21 04:16:50;;;;;;;19.80;12.98;;;5.40;99.90;;;;;;5034586;28;20399;-73
2022/03/21 04:19:15;;;;;;;19.30;12.30;;;5.30;99.90;;;;;;5016653;28;20037;-73
2022/03/21 04:21:41;;;;;;;19.83;12.45;;;5.30;99.90;;;;;;5014700;28;20041;-73
2022/03/21 04:24:07;;;;;;;20.88;12.50;;;5.30;99.90;;;;;;5014462;28;20045;-73
2022/03/21 04:26:33;;;;;;;18.02;11.10;;;5.30;99.90;;;;;;5029442;28;20444;-73
2022/03/21 04:28:59;;;;;;;23.35;12.60;;;5.40;99.90;;;;;;4998021;28;20042;-73
2022/03/21 04:31:25;;;;;;;19.58;12.25;;;5.30;99.90;;;;;;5030771;28;20057;-73
2022/03/21 04:33:50;;;;;;;19.23;12.80;;;5.30;99.90;;;;;;5017588;28;20394;-73
2022/03/21 04:36:18;;;;;;;22.52;12.80;;;5.40;99.90;;;;;;5033222;28;20088;-73
2022/03/21 04:38:44;;;;;;;21.58;12.82;;;5.40;99.90;;;;;;5033908;28;20072;-73
2022/03/21 04:41:10;;;;;;;21.20;12.15;;;5.40;99.90;;;;;;5017019;28;20100;-73
2022/03/21 04:43:35;;;;;;;21.88;13.43;;;5.50;99.90;;;;;;5033431;28;20068;-73
2022/03/21 04:46:01;;;;;;;19.40;12.95;;;5.40;99.90;;;;;;5032769;28;20056;-73
2022/03/21 04:48:26;;;;;;;20.52;13.55;;;5.40;99.90;;;;;;5021757;28;20045;-73
2022/03/21 04:50:52;;;;;;;20.90;12.43;;;5.30;99.90;;;;;;5029938;28;20048;-73
2022/03/21 04:53:18;;;;;;;20.55;12.63;;;5.20;99.90;;;;;;5013837;28;20119;-73
2022/03/21 04:55:43;;;;;;;19.45;11.70;;;5.20;99.90;;;;;;5014197;28;20037;-73
2022/03/21 04:58:10;;;;;;;20.05;13.15;;;5.10;99.90;;;;;;5016557;28;20553;-73
2022/03/21 05:00:37;;;;;;;18.30;11.07;;;5.00;99.90;;;;;;5049059;28;20493;-73
2022/03/21 05:03:07;;;;;;;18.08;11.07;;;4.90;99.90;;;;;;5032684;28;20390;-73
2022/03/21 05:05:35;;;;;;;18.27;11.00;;;4.90;99.90;;;;;;5015951;28;20091;-74
2022/03/21 05:08:02;;;;;;;19.20;11.50;;;4.80;99.90;;;;;;5033670;28;20402;-73
2022/03/21 05:10:28;;;;;;;15.55;10.23;;;4.80;99.90;;;;;;5030558;28;20413;-73
2022/03/21 05:12:54;;;;;;;19.40;10.80;;;4.80;99.90;;;;;;5050160;28;20394;-73
2022/03/21 05:15:19;;;;;;;19.45;11.45;;;4.80;99.90;;;;;;5034803;28;20040;-73
2022/03/21 05:17:45;;;;;;;18.13;11.85;;;4.70;99.90;;;;;;5016708;28;20481;-73
2022/03/21 05:20:15;;;;;;;18.83;11.10;;;4.70;99.90;;;;;;5011782;28;20101;-73
2022/03/21 05:22:43;;;;;;;17.58;11.63;;;4.60;99.90;;;;;;5013731;28;20140;-73
2022/03/21 05:36:05;;;;;;;18.90;11.77;;;4.20;99.90;;;;;;5031827;28;20049;-73
2022/03/21 05:38:31;;;;;;;17.10;11.40;;;4.10;99.90;;;;;;5016614;28;20381;-74
2022/03/21 05:41:03;;;;;;;19.85;12.18;;;4.10;99.90;;;;;;5030170;28;20037;-73
2022/03/21 05:43:30;;;;;;;17.40;10.93;;;4.10;99.90;;;;;;5046710;28;20063;-74
2022/03/21 05:45:56;;;;;;;18.05;11.23;;;4.00;99.90;;;;;;5015528;28;20129;-73
2022/03/21 05:51:08;;;;;;;17.73;10.55;;;3.80;99.90;;;;;;5048143;28;20496;-73
2022/03/21 05:53:33;;;;;;;16.20;10.55;;;3.80;99.90;;;;;;5031933;28;20490;-73
2022/03/21 05:56:00;;;;;;;16.90;11.07;;;3.80;99.90;;;;;;5047981;28;20124;-73
2022/03/21 05:58:29;;;;;;;16.80;11.18;;;3.80;99.90;;;;;;5032675;28;20433;-73
2022/03/21 06:00:55;;;;;;;16.95;10.15;;;3.70;99.90;;;;;;5047932;28;20103;-73
2022/03/21 06:03:22;;;;;;;15.30;10.20;;;3.70;99.90;;;;;;5032429;28;20087;-73
2022/03/21 06:05:49;;;;;;;17.10;10.40;;;3.80;99.90;;;;;;5031606;28;20108;-73
2022/03/21 06:08:14;;;;;;;14.60;9.95;;;3.70;99.90;;;;;;5015890;28;20033;-74
2022/03/21 06:10:40;;;;;;;14.82;9.02;;;3.70;99.90;;;;;;5028536;28;20096;-73
2022/03/21 06:13:06;;;;;;;15.80;9.45;;;3.80;99.90;;;;;;5048380;28;20037;-73
2022/03/21 06:15:36;;;;;;;17.17;9.88;;;3.80;99.90;;;;;;5030715;28;20604;-73
2022/03/21 06:18:07;;;;;;;15.50;9.75;;;3.90;99.90;;;;;;5015793;28;20418;-74
2022/03/21 06:20:33;;;;;;;16.20;10.63;;;3.90;99.90;;;;;;5011481;28;20034;-73
2022/03/21 06:22:58;;;;;;;18.08;11.70;;;3.90;99.90;;;;;;5012441;28;20457;-74
2022/03/21 06:25:24;;;;;;;16.90;11.05;;;3.70;99.90;;;;;;5018108;28;20513;-73
2022/03/21 06:27:50;;;;;;;16.10;10.90;;;3.80;99.90;;;;;;5030155;28;20426;-73
2022/03/21 06:30:15;;;;;;;15.98;9.80;;;3.90;99.90;;;;;;5025751;28;20501;-74
2022/03/21 06:32:41;;;;;;;15.57;10.30;;;3.90;99.90;;;;;;5031222;28;20030;-73
2022/03/21 06:35:10;;;;;;;16.25;9.32;;;3.90;99.90;;;;;;5013128;28;20069;-73
2022/03/21 06:37:37;;;;;;;18.17;10.55;;;4.10;99.90;;;;;;5028514;28;20112;-73
2022/03/21 06:40:03;;;;;;;15.98;9.77;;;4.30;99.90;;;;;;5011180;28;20557;-73
2022/03/21 06:42:29;;;;;;;14.45;10.05;;;4.20;99.90;;;;;;5030536;28;20061;-73
2022/03/21 06:44:54;;;;;;;16.45;9.60;;;4.30;99.90;;;;;;5031787;28;20049;-73
2022/03/21 06:47:20;;;;;;;17.70;10.50;;;4.40;99.90;;;;;;5028993;28;20049;-73
2022/03/21 06:49:46;;;;;;;19.45;10.77;;;4.50;99.90;;;;;;5027815;28;20034;-73
2022/03/21 06:52:13;;;;;;;18.00;11.57;;;4.70;99.90;;;;;;5012795;28;20060;-73
2022/03/21 06:54:39;;;;;;;19.77;12.07;;;4.90;99.90;;;;;;5024206;28;20116;-74
2022/03/21 06:57:05;;;;;;;19.52;11.48;;;4.80;99.90;;;;;;5012018;28;20034;-73
2022/03/21 06:59:32;;;;;;;18.95;11.45;;;4.90;99.90;;;;;;5016798;28;20450;-73
2022/03/21 07:01:58;;;;;;;20.42;12.13;;;5.00;99.90;;;;;;5037911;28;20048;-73
2022/03/21 07:04:24;;;;;;;17.50;12.10;;;5.10;99.90;;;;;;5045820;28;20033;-73
2022/03/21 07:06:53;;;;;;;19.70;11.45;;;5.20;99.90;;;;;;5026586;28;20046;-73
2022/03/21 07:09:19;;;;;;;18.92;12.00;;;5.40;99.90;;;;;;5015462;28;20042;-73
2022/03/21 07:11:45;;;;;;;19.95;12.27;;;5.40;99.90;;;;;;5032405;28;20033;-73
2022/03/21 07:14:11;;;;;;;22.25;13.30;;;5.60;99.90;;;;;;5018121;28;20088;-73
2022/03/21 07:16:37;;;;;;;22.38;13.02;;;5.50;99.90;;;;;;5011995;28;20034;-73
2022/03/21 07:19:03;;;;;;;21.85;13.68;;;5.60;99.90;;;;;;5034805;28;20033;-73
2022/03/21 07:21:28;;;;;;;23.98;13.65;;;5.70;99.90;;;;;;5031152;28;20413;-73
2022/03/21 07:23:54;;;;;;;22.38;13.25;;;5.80;99.90;;;;;;5035233;28;20474;-73
2022/03/21 07:26:19;;;;;;;24.20;13.77;;;5.90;99.90;;;;;;4999605;28;20057;-73
2022/03/21 07:28:45;;;;;;;20.92;13.38;;;5.90;99.90;;;;;;5025406;28;20083;-73
2022/03/21 07:31:11;;;;;;;21.90;14.00;;;6.00;99.90;;;;;;5029548;28;20040;-73
2022/03/21 07:33:42;;;;;;;23.10;13.95;;;6.10;99.90;;;;;;5014560;28;20038;-73
2022/03/21 07:36:09;;;;;;;23.45;14.50;;;6.20;99.90;;;;;;5018769;28;20511;-73
2022/03/21 07:38:35;;;;;;;21.83;13.20;;;6.30;99.90;;;;;;5035034;28;20124;-74
2022/03/21 07:41:02;;;;;;;23.05;14.95;;;6.50;99.90;;;;;;5033811;28;20132;-73
2022/03/21 07:43:27;;;;;;;22.05;13.63;;;6.50;99.90;;;;;;5034755;28;20053;-73
2022/03/21 07:48:39;;;;;;;22.40;14.20;;;6.60;99.90;;;;;;5035936;28;20064;-73
2022/03/21 07:51:05;;;;;;;22.45;14.40;;;6.70;99.90;;;;;;5032139;28;20136;-73
2022/03/21 07:53:31;;;;;;;23.55;13.93;;;6.90;99.90;;;;;;5019533;28;20041;-73
2022/03/21 07:56:00;;;;;;;20.73;13.95;;;7.00;99.90;;;;;;5027936;28;20103;-73
2022/03/21 07:58:26;;;;;;;21.50;13.13;;;7.10;99.90;;;;;;5015041;28;20033;-73
2022/03/21 08:00:52;;;;;;;24.60;14.25;;;7.20;99.90;;;;;;5023050;28;20053;-73
2022/03/21 08:03:18;;;;;;;25.55;14.38;;;7.30;99.90;;;;;;5032579;28;20056;-73
2022/03/21 08:05:43;;;;;;;21.10;13.18;;;7.40;99.90;;;;;;5031889;28;20124;-73
2022/03/21 08:08:09;;;;;;;21.85;15.15;;;7.60;99.90;;;;;;5049362;28;20513;-73
2022/03/21 08:10:35;;;;;;;23.38;14.35;;;7.70;99.90;;;;;;5031356;28;20095;-73
2022/03/21 08:13:01;;;;;;;26.00;13.50;;;7.70;99.90;;;;;;5033005;28;20482;-73
2022/03/21 08:15:26;;;;;;;23.77;14.18;;;7.80;99.90;;;;;;5047952;28;20113;-74
2022/03/21 08:17:59;;;;;;;20.73;13.75;;;7.90;99.90;;;;;;5030989;28;20045;-73
2022/03/21 08:20:34;;;;;;;25.35;14.70;;;8.10;99.90;;;;;;5012123;28;20438;-73
2022/03/21 08:23:06;;;;;;;23.42;14.40;;;8.10;99.90;;;;;;5043217;28;20052;-73
2022/03/21 08:25:33;;;;;;;22.10;14.02;;;8.30;99.90;;;;;;5032347;28;20044;-73
2022/03/21 08:27:58;;;;;;;22.13;14.52;;;8.30;99.90;;;;;;5017471;28;20053;-73
2022/03/21 08:30:24;;;;;;;21.90;14.02;;;8.40;99.90;;;;;;5033000;28;20039;-74
2022/03/21 08:32:50;;;;;;;27.58;15.45;;;8.50;99.90;;;;;;5032267;28;20033;-74
2022/03/21 08:35:20;;;;;;;24.05;15.05;;;8.50;99.90;;;;;;5015628;28;20121;-73
2022/03/21 08:37:48;;;;;;;27.38;13.93;;;8.60;99.90;;;;;;5013505;28;20034;-74
2022/03/21 08:40:15;;;;;;;23.25;15.25;;;8.90;99.90;;;;;;5013496;28;20390;-74
2022/03/21 08:42:41;;;;;;;23.75;14.75;;;9.10;99.90;;;;;;5048337;28;20041;-73
2022/03/21 08:45:07;;;;;;;25.13;14.95;;;9.00;99.90;;;;;;5015989;28;20041;-74
2022/03/21 08:47:34;;;;;;;29.75;16.55;;;9.10;99.90;;;;;;5031033;28;20098;-73
2022/03/21 08:49:59;;;;;;;25.73;16.80;;;9.20;99.90;;;;;;5013132;28;20076;-75
2022/03/21 08:52:25;;;;;;;24.63;15.73;;;9.20;99.90;;;;;;5006095;28;20394;-74
2022/03/21 08:54:51;;;;;;;25.17;16.98;;;9.30;99.90;;;;;;5033781;28;20029;-73
2022/03/21 08:57:17;;;;;;;24.75;15.30;;;9.50;99.90;;;;;;5013630;28;20189;-75
2022/03/21 08:59:42;;;;;;;24.15;15.45;;;9.60;99.90;;;;;;5028867;28;20049;-74
2022/03/21 09:02:12;;;;;;;24.30;16.20;;;9.70;99.90;;;;;;5031792;28;20037;-74
2022/03/21 09:04:39;;;;;;;24.15;16.52;;;9.80;99.90;;;;;;5030736;28;20051;-74
2022/03/21 09:07:05;;;;;;;24.33;15.77;;;9.90;99.90;;;;;;5031167;28;20045;-74
2022/03/21 09:09:31;;;;;;;24.38;13.30;;;10.10;99.90;;;;;;5043655;28;20038;-73
2022/03/21 09:11:57;;;;;;;25.63;16.02;;;10.30;99.90;;;;;;5013814;28;20052;-73
2022/03/21 09:14:23;;;;;;;26.13;15.73;;;10.40;99.90;;;;;;5015890;28;20120;-74
2022/03/21 09:16:50;;;;;;;22.95;14.75;;;10.50;99.90;;;;;;5030093;28;20906;-74
2022/03/21 09:19:16;;;;;;;27.10;16.60;;;10.50;99.90;;;;;;5031117;28;20083;-74
2022/03/21 09:21:43;;;;;;;22.80;14.90;;;10.70;99.90;;;;;;5031402;28;20049;-74
2022/03/21 09:24:10;;;;;;;25.30;15.98;;;10.80;99.90;;;;;;5014786;28;20437;-74
2022/03/21 09:26:36;;;;;;;24.58;16.83;;;10.80;99.90;;;;;;5031824;28;20502;-74
2022/03/21 09:29:03;;;;;;;25.35;15.52;;;10.90;99.90;;;;;;5030924;28;20188;-74
2022/03/21 09:31:29;;;;;;;23.30;16.13;;;11.00;99.90;;;;;;5030022;28;20409;-74
2022/03/21 09:33:55;;;;;;;22.77;16.17;;;11.10;99.90;;;;;;5031477;28;20040;-74
2022/03/21 09:36:21;;;;;;;24.42;14.77;;;11.20;99.90;;;;;;5046374;28;20076;-74
2022/03/21 09:38:48;;;;;;;22.70;14.95;;;11.30;99.90;;;;;;5031361;28;20076;-74
2022/03/21 09:41:13;;;;;;;23.90;16.00;;;11.30;99.90;;;;;;5016174;28;20049;-74
2022/03/21 09:43:40;;;;;;;27.63;16.00;;;11.50;99.90;;;;;;5017159;28;20105;-74
2022/03/21 09:46:07;;;;;;;23.00;15.60;;;11.60;99.90;;;;;;5023453;28;20060;-74
2022/03/21 09:48:34;;;;;;;24.45;16.02;;;11.70;99.90;;;;;;5016191;28;20128;-74
2022/03/21 09:51:03;;;;;;;25.77;16.63;;;11.80;99.90;;;;;;5046943;28;20037;-74
2022/03/21 09:53:29;;;;;;;23.92;16.80;;;11.90;99.80;;;;;;5036140;28;20061;-74
2022/03/21 09:55:55;;;;;;;27.92;17.02;;;11.90;99.40;;;;;;5034437;28;20063;-74
2022/03/21 09:58:21;;;;;;;26.48;16.83;;;12.10;98.30;;;;;;5032230;28;20033;-74
2022/03/21 10:00:51;;;;;;;25.17;16.92;;;12.10;98.30;;;;;;5014231;28;20064;-75
2022/03/21 10:03:16;;;;;;;26.75;18.35;;;12.10;98.30;;;;;;5013701;28;20041;-74
2022/03/21 10:05:46;;;;;;;28.83;18.30;;;12.10;98.10;;;;;;5026083;28;20043;-74
2022/03/21 10:08:27;;;;;;;27.30;18.02;;;12.20;98.60;;;;;;5029061;28;20045;-74
2022/03/21 10:10:55;;;;;;;27.17;17.90;;;12.30;98.10;;;;;;5012769;28;20120;-74
2022/03/21 10:13:23;;;;;;;25.85;17.27;;;12.40;96.80;;;;;;5031021;28;20042;-74
2022/03/21 10:16:04;;;;;;;25.95;17.95;;;12.40;96.80;;;;;;5017482;28;20113;-74
2022/03/21 10:18:30;;;;;;;26.48;16.00;;;12.50;96.20;;;;;;5026183;28;20086;-74
2022/03/21 10:21:15;;;;;;;23.92;17.00;;;12.60;96.20;;;;;;5025059;28;20422;-74
2022/03/21 10:23:44;;;;;;;24.13;16.35;;;12.50;96.30;;;;;;5011214;28;20457;-74
2022/03/21 10:26:33;;;;;;;25.35;17.52;;;12.60;95.60;;;;;;5012843;28;20163;-74
2022/03/21 10:29:01;;;;;;;27.17;17.33;;;12.60;93.20;;;;;;5004923;28;20049;-74
2022/03/21 10:31:34;;;;;;;24.13;16.50;;;12.70;96.30;;;;;;5029595;28;20041;-75
2022/03/21 10:34:06;;;;;;;24.17;14.73;;;12.80;94.70;;;;;;5029935;28;20052;-74
2022/03/21 10:36:32;;;;;;;24.40;16.30;;;12.90;92.00;;;;;;5030939;28;20128;-74
2022/03/21 10:39:12;;;;;;;27.02;17.75;;;12.90;92.70;;;;;;5030658;28;20402;-74
2022/03/21 10:41:39;;;;;;;23.90;16.38;;;12.90;92.30;;;;;;5029708;28;20045;-74
2022/03/21 10:44:07;;;;;;;24.42;17.38;;;12.90;93.10;;;;;;5014990;28;20053;-74
2022/03/21 10:46:33;;;;;;;22.83;15.65;;;12.90;94.30;;;;;;5009562;28;20046;-74
2022/03/21 10:49:07;;;;;;;22.20;15.25;;;12.90;93.30;;;;;;5014487;28;20045;-74
2022/03/21 10:51:53;;;;;;;24.13;15.50;;;13.10;89.60;;;;;;5030974;28;20041;-74
2022/03/21 10:54:37;;;;;;;23.13;16.13;;;13.20;88.30;;;;;;5015903;28;20548;-74
2022/03/21 10:57:03;;;;;;;22.42;16.05;;;13.20;89.00;;;;;;5016994;28;20087;-74
2022/03/21 10:59:29;;;;;;;21.77;15.15;;;13.30;87.00;;;;;;5031808;28;20045;-74
2022/03/21 11:02:13;;;;;;;24.13;16.20;;;13.20;88.10;;;;;;5031475;28;20050;-74
2022/03/21 11:04:42;;;;;;;26.58;17.15;;;13.30;88.70;;;;;;5028117;28;20087;-74
2022/03/21 11:07:11;;;;;;;21.98;14.65;;;13.30;86.20;;;;;;5013846;28;20447;-74
2022/03/21 11:09:39;;;;;;;26.13;16.45;;;13.30;89.20;;;;;;5031499;28;20045;-74
2022/03/21 11:12:09;;;;;;;22.98;15.98;;;13.50;84.00;;;;;;5029734;28;20034;-74
2022/03/21 11:14:39;;;;;;;22.73;15.80;;;13.40;80.20;;;;;;5014498;28;20087;-74
2022/03/21 11:17:06;;;;;;;23.50;15.55;;;13.40;83.80;;;;;;5046358;28;20129;-74
2022/03/21 11:19:33;;;;;;;24.35;15.63;;;13.40;84.20;;;;;;5031292;28;20045;-74
2022/03/21 11:22:01;;;;;;;25.38;15.48;;;13.50;82.90;;;;;;5010553;28;20462;-74
2022/03/21 11:24:31;;;;;;;24.55;16.67;;;13.60;82.70;;;;;;5015452;28;20034;-74
2022/03/21 11:27:21;;;;;;;22.95;15.02;;;13.60;84.40;;;;;;5020711;28;20046;-74
2022/03/21 11:30:17;;;;;;;25.98;16.27;;;13.70;80.50;;;;;;5014053;28;20045;-74
2022/03/21 11:33:07;;;;;;;25.67;17.05;;;13.60;84.50;;;;;;5040179;28;20469;-74
2022/03/21 11:35:34;;;;;;;24.75;16.17;;;13.50;82.90;;;;;;5025916;28;20117;-74
2022/03/21 11:38:21;;;;;;;23.85;16.30;;;13.50;87.10;;;;;;5030926;28;20033;-74
2022/03/21 11:40:47;;;;;;;24.08;16.50;;;13.50;83.10;;;;;;5027338;28;20576;-74
2022/03/21 11:43:18;;;;;;;23.02;15.98;;;13.60;85.50;;;;;;5026131;28;20061;-74
2022/03/21 11:45:53;;;;;;;29.43;18.20;;;13.60;81.30;;;;;;5012439;28;20530;-75
2022/03/21 11:48:18;;;;;;;24.70;17.40;;;13.60;82.60;;;;;;5010764;28;20060;-74
2022/03/21 11:50:49;;;;;;;25.48;17.17;;;13.60;81.70;;;;;;5010679;28;20045;-74
2022/03/21 11:53:16;;;;;;;28.60;19.30;;;13.60;82.30;;;;;;5023719;28;20032;-74
2022/03/21 11:55:45;;;;;;;24.88;18.13;;;13.50;75.70;;;;;;5040107;28;20052;-74
2022/03/21 11:58:23;;;;;;;23.50;16.13;;;13.50;78.90;;;;;;5030290;28;20084;-74
2022/03/21 12:01:12;;;;;;;23.25;16.50;;;13.50;83.00;;;;;;5027326;28;20045;-74
2022/03/21 12:03:41;;;;;;;27.98;17.00;;;13.60;83.60;;;;;;5033482;28;20167;-75
2022/03/21 12:06:23;;;;;;;24.80;16.27;;;13.80;79.10;;;;;;5034097;28;20049;-74
2022/03/21 12:08:52;;;;;;;27.65;17.40;;;13.80;77.20;;;;;;5013051;28;20049;-74
2022/03/21 12:11:37;;;;;;;24.63;17.38;;;14.00;73.20;;;;;;5022249;28;20049;-75
2022/03/21 12:14:20;;;;;;;23.58;16.38;;;13.90;77.50;;;;;;5029986;28;20096;-74
2022/03/21 12:16:47;;;;;;;27.20;16.80;;;13.90;74.50;;;;;;5032257;28;20038;-74
2022/03/21 12:19:12;;;;;;;23.05;16.20;;;13.90;78.10;;;;;;5018482;28;20050;-74
2022/03/21 12:21:38;;;;;;;25.88;18.88;;;14.00;76.30;;;;;;5031340;28;20041;-75
2022/03/21 12:24:17;;;;;;;26.52;17.25;;;14.00;69.00;;;;;;5032661;28;20044;-74
2022/03/21 12:26:54;;;;;;;23.85;15.93;;;14.20;72.30;;;;;;5017287;28;20128;-74
2022/03/21 12:29:33;;;;;;;22.67;15.38;;;14.20;74.10;;;;;;5048352;28;20041;-74
2022/03/21 12:32:24;;;;;;;26.13;16.10;;;14.10;72.80;;;;;;5033003;28;20052;-74
2022/03/21 12:34:50;;;;;;;24.00;16.50;;;14.10;73.20;;;;;;5032464;28;20042;-74
2022/03/21 12:37:36;;;;;;;23.98;16.80;;;14.20;73.10;;;;;;5017788;28;20038;-74
2022/03/21 12:40:03;;;;;;;23.70;16.35;;;14.30;72.70;;;;;;5029588;28;20042;-74
2022/03/21 12:42:29;;;;;;;23.60;14.85;;;14.30;72.40;;;;;;5029968;28;20529;-74
2022/03/21 12:44:55;;;;;;;26.08;16.50;;;14.20;71.10;;;;;;5031869;28;20041;-74
2022/03/21 12:47:21;;;;;;;22.92;14.98;;;14.30;70.70;;;;;;5031498;28;20095;-75
2022/03/21 12:49:51;;;;;;;26.63;17.10;;;14.50;68.00;;;;;;5032163;28;20067;-74
2022/03/21 12:52:28;;;;;;;26.40;16.58;;;14.50;69.30;;;;;;5016088;28;20116;-74
2022/03/21 12:54:54;;;;;;;25.05;15.13;;;14.50;71.20;;;;;;4997337;28;20438;-74
2022/03/21 12:57:20;;;;;;;24.52;14.18;;;14.60;67.50;;;;;;5012401;28;20041;-74